Weather at Sanderson Field

Public forecast

Using degrees Fahrenheit for public forecast. Weather courtesy of forecast.io.

Current aviation weather report (METAR) for Sanderson Field

2023/04/02 08:21 (retrieved 36 minutes ago)

KSHN 020821Z AUTO 00000KT 10SM UP FEW008 BKN023 OVC046 01/01 A2992 RMK AO2 RAE21UPB21 P0001 T00110006

Closest aviation forecast (TAF) to Sanderson Field

Closest forecast is Olympia Regional Airport, 18.8 nm (34.7 km) SSE.

2023/04/02 06:22 (retrieved 3 hours ago)

TAF KOLM 020520Z 0206/0306 19008KT P6SM VCSH SCT025 BKN040 FM020900 19008KT P6SM VCSH BKN022 OVC035 FM021200 19008KT 6SM -SHRA BR OVC020 FM021800 22010G16KT 6SM -SHRA BKN030 OVC050 FM030200 22009KT P6SM VCSH BKN025 OVC040